sensor_id;sensor_type;location;lat;lon;timestamp;P1;durP1;ratioP1;P2;durP2;ratioP2
29548;SDS011;16487;53.094;8.800;2023-04-15T00:00:56;12.83;;;10.90;;
29548;SDS011;16487;53.094;8.800;2023-04-15T00:03:23;10.27;;;8.97;;
29548;SDS011;16487;53.094;8.800;2023-04-15T00:05:51;14.60;;;10.30;;
29548;SDS011;16487;53.094;8.800;2023-04-15T00:08:18;11.50;;;10.40;;
29548;SDS011;16487;53.094;8.800;2023-04-15T00:10:47;12.97;;;9.67;;
29548;SDS011;16487;53.094;8.800;2023-04-15T00:13:14;12.93;;;10.30;;
29548;SDS011;16487;53.094;8.800;2023-04-15T00:15:42;11.90;;;10.13;;
29548;SDS011;16487;53.094;8.800;2023-04-15T00:18:09;10.33;;;9.33;;
29548;SDS011;16487;53.094;8.800;2023-04-15T00:20:36;10.90;;;9.67;;
29548;SDS011;16487;53.094;8.800;2023-04-15T00:23:04;10.83;;;9.20;;
29548;SDS011;16487;53.094;8.800;2023-04-15T00:25:31;13.53;;;10.10;;
29548;SDS011;16487;53.094;8.800;2023-04-15T00:28:00;9.83;;;8.83;;
29548;SDS011;16487;53.094;8.800;2023-04-15T00:30:27;11.30;;;9.80;;
29548;SDS011;16487;53.094;8.800;2023-04-15T00:32:54;11.80;;;9.93;;
29548;SDS011;16487;53.094;8.800;2023-04-15T00:35:22;15.00;;;11.27;;
29548;SDS011;16487;53.094;8.800;2023-04-15T00:37:49;12.87;;;9.50;;
29548;SDS011;16487;53.094;8.800;2023-04-15T00:40:18;12.70;;;9.57;;
29548;SDS011;16487;53.094;8.800;2023-04-15T00:42:47;12.07;;;9.30;;
29548;SDS011;16487;53.094;8.800;2023-04-15T00:45:15;10.77;;;9.67;;
29548;SDS011;16487;53.094;8.800;2023-04-15T00:47:43;11.10;;;9.73;;
29548;SDS011;16487;53.094;8.800;2023-04-15T00:50:10;11.03;;;8.80;;
29548;SDS011;16487;53.094;8.800;2023-04-15T00:52:38;14.60;;;10.90;;
29548;SDS011;16487;53.094;8.800;2023-04-15T00:55:06;11.53;;;10.30;;
29548;SDS011;16487;53.094;8.800;2023-04-15T00:57:35;14.77;;;9.83;;
29548;SDS011;16487;53.094;8.800;2023-04-15T01:00:04;10.90;;;9.10;;
29548;SDS011;16487;53.094;8.800;2023-04-15T01:02:35;12.27;;;10.20;;
29548;SDS011;16487;53.094;8.800;2023-04-15T01:05:03;11.37;;;9.23;;
29548;SDS011;16487;53.094;8.800;2023-04-15T01:07:30;11.20;;;9.87;;
29548;SDS011;16487;53.094;8.800;2023-04-15T01:09:58;12.00;;;10.03;;
29548;SDS011;16487;53.094;8.800;2023-04-15T01:12:26;13.07;;;10.20;;
29548;SDS011;16487;53.094;8.800;2023-04-15T01:14:53;13.20;;;10.07;;
29548;SDS011;16487;53.094;8.800;2023-04-15T01:17:21;12.10;;;9.87;;
29548;SDS011;16487;53.094;8.800;2023-04-15T01:19:51;14.60;;;11.57;;
29548;SDS011;16487;53.094;8.800;2023-04-15T01:22:18;15.63;;;10.57;;
29548;SDS011;16487;53.094;8.800;2023-04-15T01:24:48;14.60;;;11.30;;
29548;SDS011;16487;53.094;8.800;2023-04-15T01:27:22;14.03;;;10.90;;
29548;SDS011;16487;53.094;8.800;2023-04-15T01:29:49;14.93;;;11.43;;
29548;SDS011;16487;53.094;8.800;2023-04-15T01:32:17;13.93;;;10.40;;
29548;SDS011;16487;53.094;8.800;2023-04-15T01:34:44;12.50;;;10.47;;
29548;SDS011;16487;53.094;8.800;2023-04-15T01:37:11;16.37;;;12.27;;
29548;SDS011;16487;53.094;8.800;2023-04-15T01:39:38;14.93;;;10.90;;
29548;SDS011;16487;53.094;8.800;2023-04-15T01:42:06;15.10;;;12.03;;
29548;SDS011;16487;53.094;8.800;2023-04-15T01:44:35;14.67;;;12.27;;
29548;SDS011;16487;53.094;8.800;2023-04-15T01:47:02;14.47;;;11.80;;
29548;SDS011;16487;53.094;8.800;2023-04-15T01:49:29;16.97;;;12.40;;
29548;SDS011;16487;53.094;8.800;2023-04-15T01:51:56;17.57;;;13.33;;
29548;SDS011;16487;53.094;8.800;2023-04-15T01:54:24;16.80;;;13.00;;
29548;SDS011;16487;53.094;8.800;2023-04-15T01:56:51;17.73;;;12.77;;
29548;SDS011;16487;53.094;8.800;2023-04-15T01:59:18;14.50;;;11.10;;
29548;SDS011;16487;53.094;8.800;2023-04-15T02:01:47;15.37;;;11.60;;
29548;SDS011;16487;53.094;8.800;2023-04-15T02:04:14;19.50;;;11.57;;
29548;SDS011;16487;53.094;8.800;2023-04-15T02:06:42;14.67;;;10.67;;
29548;SDS011;16487;53.094;8.800;2023-04-15T02:09:09;15.50;;;11.67;;
29548;SDS011;16487;53.094;8.800;2023-04-15T02:11:36;15.77;;;11.60;;
29548;SDS011;16487;53.094;8.800;2023-04-15T02:14:04;12.47;;;10.20;;
29548;SDS011;16487;53.094;8.800;2023-04-15T02:16:31;16.60;;;11.63;;
29548;SDS011;16487;53.094;8.800;2023-04-15T02:19:00;13.63;;;10.50;;
29548;SDS011;16487;53.094;8.800;2023-04-15T02:21:29;14.87;;;11.20;;
29548;SDS011;16487;53.094;8.800;2023-04-15T02:23:56;15.77;;;12.83;;
29548;SDS011;16487;53.094;8.800;2023-04-15T02:26:23;14.33;;;11.03;;
29548;SDS011;16487;53.094;8.800;2023-04-15T02:28:53;14.93;;;12.00;;
29548;SDS011;16487;53.094;8.800;2023-04-15T02:31:20;15.83;;;11.67;;
29548;SDS011;16487;53.094;8.800;2023-04-15T02:33:48;14.90;;;11.97;;
29548;SDS011;16487;53.094;8.800;2023-04-15T02:36:16;15.77;;;12.33;;
29548;SDS011;16487;53.094;8.800;2023-04-15T02:38:44;14.73;;;11.10;;
29548;SDS011;16487;53.094;8.800;2023-04-15T02:41:13;13.80;;;11.40;;
29548;SDS011;16487;53.094;8.800;2023-04-15T02:43:41;15.30;;;12.30;;
29548;SDS011;16487;53.094;8.800;2023-04-15T02:46:08;17.70;;;12.70;;
29548;SDS011;16487;53.094;8.800;2023-04-15T02:48:37;16.73;;;13.27;;
29548;SDS011;16487;53.094;8.800;2023-04-15T02:51:11;16.37;;;11.23;;
29548;SDS011;16487;53.094;8.800;2023-04-15T02:53:43;15.20;;;11.93;;
29548;SDS011;16487;53.094;8.800;2023-04-15T02:56:10;14.07;;;12.10;;
29548;SDS011;16487;53.094;8.800;2023-04-15T02:58:39;16.10;;;12.87;;
29548;SDS011;16487;53.094;8.800;2023-04-15T03:01:06;16.60;;;12.07;;
29548;SDS011;16487;53.094;8.800;2023-04-15T03:03:34;15.07;;;12.03;;
29548;SDS011;16487;53.094;8.800;2023-04-15T03:06:02;14.93;;;11.97;;
29548;SDS011;16487;53.094;8.800;2023-04-15T03:08:29;13.83;;;12.27;;
29548;SDS011;16487;53.094;8.800;2023-04-15T03:10:58;16.70;;;12.57;;
29548;SDS011;16487;53.094;8.800;2023-04-15T03:13:26;14.97;;;12.23;;
29548;SDS011;16487;53.094;8.800;2023-04-15T03:15:56;16.20;;;12.20;;
29548;SDS011;16487;53.094;8.800;2023-04-15T03:18:23;15.13;;;12.37;;
29548;SDS011;16487;53.094;8.800;2023-04-15T03:20:50;16.90;;;13.00;;
29548;SDS011;16487;53.094;8.800;2023-04-15T03:23:18;18.50;;;13.47;;
29548;SDS011;16487;53.094;8.800;2023-04-15T03:25:45;13.53;;;12.10;;
29548;SDS011;16487;53.094;8.800;2023-04-15T03:28:15;15.73;;;12.67;;
29548;SDS011;16487;53.094;8.800;2023-04-15T03:30:42;14.80;;;12.23;;
29548;SDS011;16487;53.094;8.800;2023-04-15T03:33:10;17.30;;;12.73;;
29548;SDS011;16487;53.094;8.800;2023-04-15T03:35:37;17.70;;;12.30;;
29548;SDS011;16487;53.094;8.800;2023-04-15T03:38:05;16.20;;;11.60;;
29548;SDS011;16487;53.094;8.800;2023-04-15T03:40:32;15.50;;;12.53;;
29548;SDS011;16487;53.094;8.800;2023-04-15T03:42:59;15.33;;;12.17;;
29548;SDS011;16487;53.094;8.800;2023-04-15T03:45:28;13.17;;;9.60;;
29548;SDS011;16487;53.094;8.800;2023-04-15T03:47:56;13.07;;;10.27;;
29548;SDS011;16487;53.094;8.800;2023-04-15T03:50:41;15.60;;;11.70;;
29548;SDS011;16487;53.094;8.800;2023-04-15T03:53:09;15.23;;;11.63;;
29548;SDS011;16487;53.094;8.800;2023-04-15T03:55:36;16.83;;;11.00;;
29548;SDS011;16487;53.094;8.800;2023-04-15T03:58:03;13.27;;;11.23;;
29548;SDS011;16487;53.094;8.800;2023-04-15T04:00:32;13.93;;;11.20;;
29548;SDS011;16487;53.094;8.800;2023-04-15T04:02:59;16.53;;;12.17;;
29548;SDS011;16487;53.094;8.800;2023-04-15T04:05:26;16.17;;;11.43;;
29548;SDS011;16487;53.094;8.800;2023-04-15T04:07:54;16.43;;;12.20;;
29548;SDS011;16487;53.094;8.800;2023-04-15T04:10:21;18.40;;;12.07;;
29548;SDS011;16487;53.094;8.800;2023-04-15T04:12:48;17.37;;;12.67;;
29548;SDS011;16487;53.094;8.800;2023-04-15T04:15:16;17.83;;;13.23;;
29548;SDS011;16487;53.094;8.800;2023-04-15T04:17:44;16.93;;;13.17;;
29548;SDS011;16487;53.094;8.800;2023-04-15T04:20:12;20.53;;;14.37;;
29548;SDS011;16487;53.094;8.800;2023-04-15T04:22:39;19.27;;;14.77;;
29548;SDS011;16487;53.094;8.800;2023-04-15T04:25:07;24.20;;;16.00;;
29548;SDS011;16487;53.094;8.800;2023-04-15T04:27:35;18.73;;;15.30;;
29548;SDS011;16487;53.094;8.800;2023-04-15T04:30:03;21.87;;;15.97;;
29548;SDS011;16487;53.094;8.800;2023-04-15T04:32:31;22.47;;;15.30;;
29548;SDS011;16487;53.094;8.800;2023-04-15T04:34:59;19.77;;;14.60;;
29548;SDS011;16487;53.094;8.800;2023-04-15T04:37:27;21.73;;;14.03;;
29548;SDS011;16487;53.094;8.800;2023-04-15T04:39:54;24.53;;;15.40;;
29548;SDS011;16487;53.094;8.800;2023-04-15T04:42:21;23.03;;;15.83;;
29548;SDS011;16487;53.094;8.800;2023-04-15T04:44:49;24.00;;;17.40;;
29548;SDS011;16487;53.094;8.800;2023-04-15T04:47:16;23.77;;;16.43;;
29548;SDS011;16487;53.094;8.800;2023-04-15T04:49:43;24.57;;;16.10;;
29548;SDS011;16487;53.094;8.800;2023-04-15T04:52:12;21.70;;;15.17;;
29548;SDS011;16487;53.094;8.800;2023-04-15T04:54:39;25.80;;;17.87;;
29548;SDS011;16487;53.094;8.800;2023-04-15T04:57:06;23.57;;;16.83;;
29548;SDS011;16487;53.094;8.800;2023-04-15T04:59:33;24.87;;;17.80;;
29548;SDS011;16487;53.094;8.800;2023-04-15T05:02:00;22.90;;;16.57;;
29548;SDS011;16487;53.094;8.800;2023-04-15T05:04:28;23.93;;;17.07;;
29548;SDS011;16487;53.094;8.800;2023-04-15T05:06:55;24.80;;;18.57;;
29548;SDS011;16487;53.094;8.800;2023-04-15T05:09:24;25.00;;;17.67;;
29548;SDS011;16487;53.094;8.800;2023-04-15T05:11:51;26.93;;;18.20;;
29548;SDS011;16487;53.094;8.800;2023-04-15T05:14:18;29.10;;;18.13;;
29548;SDS011;16487;53.094;8.800;2023-04-15T05:16:48;27.27;;;18.43;;
29548;SDS011;16487;53.094;8.800;2023-04-15T05:19:16;24.70;;;18.63;;
29548;SDS011;16487;53.094;8.800;2023-04-15T05:21:43;27.63;;;19.10;;
29548;SDS011;16487;53.094;8.800;2023-04-15T05:24:11;26.33;;;19.17;;
29548;SDS011;16487;53.094;8.800;2023-04-15T05:26:39;27.97;;;18.97;;
29548;SDS011;16487;53.094;8.800;2023-04-15T05:29:08;25.83;;;19.03;;
29548;SDS011;16487;53.094;8.800;2023-04-15T05:31:36;25.53;;;16.30;;
29548;SDS011;16487;53.094;8.800;2023-04-15T05:34:04;25.40;;;18.20;;
29548;SDS011;16487;53.094;8.800;2023-04-15T05:36:31;24.07;;;17.47;;
29548;SDS011;16487;53.094;8.800;2023-04-15T05:38:58;26.37;;;19.07;;
29548;SDS011;16487;53.094;8.800;2023-04-15T05:41:26;25.73;;;17.50;;
29548;SDS011;16487;53.094;8.800;2023-04-15T05:43:55;26.00;;;17.80;;
29548;SDS011;16487;53.094;8.800;2023-04-15T05:46:22;25.63;;;17.80;;
29548;SDS011;16487;53.094;8.800;2023-04-15T05:48:49;25.00;;;17.43;;
29548;SDS011;16487;53.094;8.800;2023-04-15T05:51:17;25.77;;;19.20;;
29548;SDS011;16487;53.094;8.800;2023-04-15T05:53:44;26.90;;;18.63;;
29548;SDS011;16487;53.094;8.800;2023-04-15T05:56:12;29.23;;;19.30;;
29548;SDS011;16487;53.094;8.800;2023-04-15T05:58:39;27.30;;;18.03;;
29548;SDS011;16487;53.094;8.800;2023-04-15T06:01:08;26.73;;;17.07;;
29548;SDS011;16487;53.094;8.800;2023-04-15T06:03:35;25.40;;;18.07;;
29548;SDS011;16487;53.094;8.800;2023-04-15T06:06:02;24.23;;;17.70;;
29548;SDS011;16487;53.094;8.800;2023-04-15T06:08:30;27.83;;;18.10;;
29548;SDS011;16487;53.094;8.800;2023-04-15T06:10:57;26.57;;;18.70;;
29548;SDS011;16487;53.094;8.800;2023-04-15T06:13:25;27.43;;;19.60;;
29548;SDS011;16487;53.094;8.800;2023-04-15T06:15:52;25.17;;;17.93;;
29548;SDS011;16487;53.094;8.800;2023-04-15T06:18:21;26.30;;;18.77;;
29548;SDS011;16487;53.094;8.800;2023-04-15T06:20:48;30.53;;;20.93;;
29548;SDS011;16487;53.094;8.800;2023-04-15T06:23:15;28.23;;;18.70;;
29548;SDS011;16487;53.094;8.800;2023-04-15T06:25:43;25.50;;;18.17;;
29548;SDS011;16487;53.094;8.800;2023-04-15T06:28:10;26.53;;;19.17;;
29548;SDS011;16487;53.094;8.800;2023-04-15T06:30:37;28.00;;;19.47;;
29548;SDS011;16487;53.094;8.800;2023-04-15T06:33:05;27.20;;;19.43;;
29548;SDS011;16487;53.094;8.800;2023-04-15T06:35:33;30.87;;;20.73;;
29548;SDS011;16487;53.094;8.800;2023-04-15T06:38:01;29.07;;;19.20;;
29548;SDS011;16487;53.094;8.800;2023-04-15T06:40:28;26.60;;;18.93;;
29548;SDS011;16487;53.094;8.800;2023-04-15T06:42:55;27.97;;;19.23;;
29548;SDS011;16487;53.094;8.800;2023-04-15T06:45:23;28.70;;;21.03;;
29548;SDS011;16487;53.094;8.800;2023-04-15T06:47:50;26.93;;;18.60;;
29548;SDS011;16487;53.094;8.800;2023-04-15T06:50:18;28.77;;;19.80;;
29548;SDS011;16487;53.094;8.800;2023-04-15T06:52:46;27.20;;;18.60;;
29548;SDS011;16487;53.094;8.800;2023-04-15T06:55:14;29.90;;;20.37;;
29548;SDS011;16487;53.094;8.800;2023-04-15T06:57:41;27.23;;;19.03;;
29548;SDS011;16487;53.094;8.800;2023-04-15T07:00:09;29.60;;;20.03;;
29548;SDS011;16487;53.094;8.800;2023-04-15T07:02:37;25.63;;;17.00;;
29548;SDS011;16487;53.094;8.800;2023-04-15T07:05:05;29.40;;;18.40;;
29548;SDS011;16487;53.094;8.800;2023-04-15T07:07:33;28.73;;;18.33;;
29548;SDS011;16487;53.094;8.800;2023-04-15T07:10:02;27.90;;;19.50;;
29548;SDS011;16487;53.094;8.800;2023-04-15T07:12:29;30.10;;;19.87;;
29548;SDS011;16487;53.094;8.800;2023-04-15T07:14:57;28.97;;;18.73;;
29548;SDS011;16487;53.094;8.800;2023-04-15T07:17:24;27.93;;;18.97;;
29548;SDS011;16487;53.094;8.800;2023-04-15T07:19:51;28.70;;;19.13;;
29548;SDS011;16487;53.094;8.800;2023-04-15T07:22:18;26.97;;;19.37;;
29548;SDS011;16487;53.094;8.800;2023-04-15T07:24:46;26.80;;;18.90;;
29548;SDS011;16487;53.094;8.800;2023-04-15T07:27:14;25.20;;;18.20;;
29548;SDS011;16487;53.094;8.800;2023-04-15T07:29:42;24.53;;;17.90;;
29548;SDS011;16487;53.094;8.800;2023-04-15T07:32:09;23.77;;;16.30;;
29548;SDS011;16487;53.094;8.800;2023-04-15T07:34:36;27.13;;;19.27;;
29548;SDS011;16487;53.094;8.800;2023-04-15T07:37:03;25.40;;;17.30;;
29548;SDS011;16487;53.094;8.800;2023-04-15T07:39:31;22.60;;;17.50;;
29548;SDS011;16487;53.094;8.800;2023-04-15T07:41:58;23.13;;;17.87;;
29548;SDS011;16487;53.094;8.800;2023-04-15T07:44:27;22.40;;;17.20;;
29548;SDS011;16487;53.094;8.800;2023-04-15T07:46:54;24.63;;;18.93;;
29548;SDS011;16487;53.094;8.800;2023-04-15T07:49:22;20.23;;;16.20;;
29548;SDS011;16487;53.094;8.800;2023-04-15T07:51:49;24.83;;;17.00;;
29548;SDS011;16487;53.094;8.800;2023-04-15T07:54:16;21.20;;;17.03;;
29548;SDS011;16487;53.094;8.800;2023-04-15T07:56:44;20.10;;;15.53;;
29548;SDS011;16487;53.094;8.800;2023-04-15T07:59:11;19.70;;;15.53;;
29548;SDS011;16487;53.094;8.800;2023-04-15T08:01:39;20.57;;;16.53;;
29548;SDS011;16487;53.094;8.800;2023-04-15T08:04:06;18.23;;;16.03;;
29548;SDS011;16487;53.094;8.800;2023-04-15T08:06:34;17.80;;;14.40;;
29548;SDS011;16487;53.094;8.800;2023-04-15T08:09:01;19.13;;;15.60;;
29548;SDS011;16487;53.094;8.800;2023-04-15T08:11:29;18.57;;;14.70;;
29548;SDS011;16487;53.094;8.800;2023-04-15T08:13:57;16.97;;;14.47;;
29548;SDS011;16487;53.094;8.800;2023-04-15T08:16:24;18.53;;;14.97;;
29548;SDS011;16487;53.094;8.800;2023-04-15T08:18:54;20.13;;;14.80;;
29548;SDS011;16487;53.094;8.800;2023-04-15T08:21:22;18.20;;;14.83;;
29548;SDS011;16487;53.094;8.800;2023-04-15T08:23:50;15.40;;;12.93;;
29548;SDS011;16487;53.094;8.800;2023-04-15T08:26:19;16.13;;;12.53;;
29548;SDS011;16487;53.094;8.800;2023-04-15T08:28:47;17.23;;;13.97;;
29548;SDS011;16487;53.094;8.800;2023-04-15T08:31:16;15.30;;;13.60;;
29548;SDS011;16487;53.094;8.800;2023-04-15T08:33:43;14.33;;;12.27;;
29548;SDS011;16487;53.094;8.800;2023-04-15T08:36:13;13.87;;;12.47;;
29548;SDS011;16487;53.094;8.800;2023-04-15T08:38:40;14.50;;;12.73;;
29548;SDS011;16487;53.094;8.800;2023-04-15T08:41:10;16.83;;;13.33;;
29548;SDS011;16487;53.094;8.800;2023-04-15T08:43:45;15.37;;;13.47;;
29548;SDS011;16487;53.094;8.800;2023-04-15T08:46:17;14.47;;;12.30;;
29548;SDS011;16487;53.094;8.800;2023-04-15T08:48:46;13.60;;;11.53;;
29548;SDS011;16487;53.094;8.800;2023-04-15T08:51:16;14.43;;;11.10;;
29548;SDS011;16487;53.094;8.800;2023-04-15T08:53:43;13.73;;;11.03;;
29548;SDS011;16487;53.094;8.800;2023-04-15T08:56:11;13.67;;;11.20;;
29548;SDS011;16487;53.094;8.800;2023-04-15T08:58:39;12.77;;;11.47;;
29548;SDS011;16487;53.094;8.800;2023-04-15T09:01:07;14.70;;;11.50;;
29548;SDS011;16487;53.094;8.800;2023-04-15T09:03:35;13.03;;;11.40;;
29548;SDS011;16487;53.094;8.800;2023-04-15T09:06:03;15.97;;;12.77;;
29548;SDS011;16487;53.094;8.800;2023-04-15T09:08:32;15.07;;;12.47;;
29548;SDS011;16487;53.094;8.800;2023-04-15T09:11:00;13.40;;;10.73;;
29548;SDS011;16487;53.094;8.800;2023-04-15T09:13:27;13.17;;;11.27;;
29548;SDS011;16487;53.094;8.800;2023-04-15T09:15:55;12.83;;;10.90;;
29548;SDS011;16487;53.094;8.800;2023-04-15T09:18:26;12.87;;;9.90;;
29548;SDS011;16487;53.094;8.800;2023-04-15T09:20:54;12.77;;;10.80;;
29548;SDS011;16487;53.094;8.800;2023-04-15T09:23:21;13.20;;;10.73;;
29548;SDS011;16487;53.094;8.800;2023-04-15T09:25:50;11.43;;;10.23;;
29548;SDS011;16487;53.094;8.800;2023-04-15T09:28:22;10.60;;;9.27;;
29548;SDS011;16487;53.094;8.800;2023-04-15T09:30:50;11.10;;;9.50;;
29548;SDS011;16487;53.094;8.800;2023-04-15T09:33:21;11.60;;;10.40;;
29548;SDS011;16487;53.094;8.800;2023-04-15T09:35:58;11.30;;;10.10;;
29548;SDS011;16487;53.094;8.800;2023-04-15T09:38:26;12.23;;;9.67;;
29548;SDS011;16487;53.094;8.800;2023-04-15T09:40:56;11.70;;;9.20;;
29548;SDS011;16487;53.094;8.800;2023-04-15T09:43:35;12.50;;;10.50;;
29548;SDS011;16487;53.094;8.800;2023-04-15T09:46:04;10.93;;;9.83;;
29548;SDS011;16487;53.094;8.800;2023-04-15T09:48:31;12.20;;;9.90;;
29548;SDS011;16487;53.094;8.800;2023-04-15T09:50:59;10.90;;;9.43;;
29548;SDS011;16487;53.094;8.800;2023-04-15T09:53:27;9.77;;;8.83;;
29548;SDS011;16487;53.094;8.800;2023-04-15T09:55:59;11.07;;;9.97;;
29548;SDS011;16487;53.094;8.800;2023-04-15T09:58:27;10.30;;;9.20;;
29548;SDS011;16487;53.094;8.800;2023-04-15T10:00:57;10.17;;;8.80;;
29548;SDS011;16487;53.094;8.800;2023-04-15T10:03:25;10.90;;;9.73;;
29548;SDS011;16487;53.094;8.800;2023-04-15T10:05:55;9.90;;;8.80;;
29548;SDS011;16487;53.094;8.800;2023-04-15T10:08:26;10.87;;;9.80;;
29548;SDS011;16487;53.094;8.800;2023-04-15T10:10:55;10.13;;;9.13;;
29548;SDS011;16487;53.094;8.800;2023-04-15T10:13:24;11.73;;;9.57;;
29548;SDS011;16487;53.094;8.800;2023-04-15T10:15:56;11.00;;;9.90;;
29548;SDS011;16487;53.094;8.800;2023-04-15T10:18:31;10.70;;;9.60;;
29548;SDS011;16487;53.094;8.800;2023-04-15T10:21:01;11.97;;;10.77;;
29548;SDS011;16487;53.094;8.800;2023-04-15T10:23:28;11.93;;;10.73;;
29548;SDS011;16487;53.094;8.800;2023-04-15T10:25:56;13.40;;;10.77;;
29548;SDS011;16487;53.094;8.800;2023-04-15T10:28:25;13.60;;;11.50;;
29548;SDS011;16487;53.094;8.800;2023-04-15T10:30:53;13.20;;;9.83;;
29548;SDS011;16487;53.094;8.800;2023-04-15T10:33:22;15.60;;;12.33;;
29548;SDS011;16487;53.094;8.800;2023-04-15T10:35:50;14.67;;;13.07;;
29548;SDS011;16487;53.094;8.800;2023-04-15T10:38:33;13.67;;;11.67;;
29548;SDS011;16487;53.094;8.800;2023-04-15T10:41:11;13.47;;;10.83;;
29548;SDS011;16487;53.094;8.800;2023-04-15T10:43:48;13.37;;;11.40;;
29548;SDS011;16487;53.094;8.800;2023-04-15T10:46:17;13.23;;;11.83;;
29548;SDS011;16487;53.094;8.800;2023-04-15T10:48:46;13.63;;;11.70;;
29548;SDS011;16487;53.094;8.800;2023-04-15T10:51:14;14.93;;;12.80;;
29548;SDS011;16487;53.094;8.800;2023-04-15T10:53:42;14.33;;;12.33;;
29548;SDS011;16487;53.094;8.800;2023-04-15T10:56:09;15.90;;;11.30;;
29548;SDS011;16487;53.094;8.800;2023-04-15T10:58:40;15.70;;;12.63;;
29548;SDS011;16487;53.094;8.800;2023-04-15T11:01:09;14.87;;;12.47;;
29548;SDS011;16487;53.094;8.800;2023-04-15T11:03:37;14.70;;;11.90;;
29548;SDS011;16487;53.094;8.800;2023-04-15T11:06:07;15.30;;;11.47;;
29548;SDS011;16487;53.094;8.800;2023-04-15T11:08:54;15.37;;;13.67;;
29548;SDS011;16487;53.094;8.800;2023-04-15T11:11:23;15.27;;;11.77;;
29548;SDS011;16487;53.094;8.800;2023-04-15T11:14:29;12.97;;;10.97;;
29548;SDS011;16487;53.094;8.800;2023-04-15T11:16:59;17.97;;;13.60;;
29548;SDS011;16487;53.094;8.800;2023-04-15T11:19:34;13.87;;;11.30;;
29548;SDS011;16487;53.094;8.800;2023-04-15T11:22:05;15.40;;;10.20;;
29548;SDS011;16487;53.094;8.800;2023-04-15T11:24:33;15.60;;;11.80;;
29548;SDS011;16487;53.094;8.800;2023-04-15T11:27:01;21.10;;;16.10;;
29548;SDS011;16487;53.094;8.800;2023-04-15T11:29:28;24.13;;;16.60;;
29548;SDS011;16487;53.094;8.800;2023-04-15T11:32:04;19.23;;;16.10;;
29548;SDS011;16487;53.094;8.800;2023-04-15T11:34:32;21.33;;;14.33;;
29548;SDS011;16487;53.094;8.800;2023-04-15T11:37:02;20.87;;;13.37;;
29548;SDS011;16487;53.094;8.800;2023-04-15T11:39:30;27.73;;;18.30;;
29548;SDS011;16487;53.094;8.800;2023-04-15T11:41:58;21.30;;;16.03;;
29548;SDS011;16487;53.094;8.800;2023-04-15T11:44:25;26.40;;;18.47;;
29548;SDS011;16487;53.094;8.800;2023-04-15T11:46:53;25.63;;;18.97;;
29548;SDS011;16487;53.094;8.800;2023-04-15T11:49:29;24.37;;;17.37;;
29548;SDS011;16487;53.094;8.800;2023-04-15T11:51:56;30.10;;;18.50;;
29548;SDS011;16487;53.094;8.800;2023-04-15T11:54:24;26.57;;;18.00;;
29548;SDS011;16487;53.094;8.800;2023-04-15T11:56:51;29.23;;;17.23;;
29548;SDS011;16487;53.094;8.800;2023-04-15T11:59:18;27.20;;;18.70;;
29548;SDS011;16487;53.094;8.800;2023-04-15T12:01:46;27.70;;;20.17;;
29548;SDS011;16487;53.094;8.800;2023-04-15T12:04:14;32.47;;;21.00;;
29548;SDS011;16487;53.094;8.800;2023-04-15T12:06:44;31.90;;;21.10;;
29548;SDS011;16487;53.094;8.800;2023-04-15T12:09:11;30.67;;;22.73;;
29548;SDS011;16487;53.094;8.800;2023-04-15T12:11:41;31.73;;;21.33;;
29548;SDS011;16487;53.094;8.800;2023-04-15T12:14:10;36.37;;;23.10;;
29548;SDS011;16487;53.094;8.800;2023-04-15T12:16:43;34.83;;;23.80;;
29548;SDS011;16487;53.094;8.800;2023-04-15T12:19:17;34.67;;;22.07;;
29548;SDS011;16487;53.094;8.800;2023-04-15T12:21:50;38.60;;;23.90;;
29548;SDS011;16487;53.094;8.800;2023-04-15T12:24:19;38.60;;;26.10;;
29548;SDS011;16487;53.094;8.800;2023-04-15T12:26:48;41.00;;;25.37;;
29548;SDS011;16487;53.094;8.800;2023-04-15T12:29:17;40.63;;;28.30;;
29548;SDS011;16487;53.094;8.800;2023-04-15T12:31:46;42.83;;;27.60;;
29548;SDS011;16487;53.094;8.800;2023-04-15T12:34:18;46.17;;;26.50;;
29548;SDS011;16487;53.094;8.800;2023-04-15T12:36:54;39.40;;;26.30;;
29548;SDS011;16487;53.094;8.800;2023-04-15T12:39:22;40.73;;;26.10;;
29548;SDS011;16487;53.094;8.800;2023-04-15T12:41:50;38.40;;;23.63;;
29548;SDS011;16487;53.094;8.800;2023-04-15T12:44:18;38.53;;;24.97;;
29548;SDS011;16487;53.094;8.800;2023-04-15T12:46:45;44.83;;;27.43;;
29548;SDS011;16487;53.094;8.800;2023-04-15T12:49:12;44.60;;;27.03;;
29548;SDS011;16487;53.094;8.800;2023-04-15T12:51:40;43.30;;;27.93;;
29548;SDS011;16487;53.094;8.800;2023-04-15T12:54:09;38.20;;;28.30;;
29548;SDS011;16487;53.094;8.800;2023-04-15T12:56:37;40.93;;;28.70;;
29548;SDS011;16487;53.094;8.800;2023-04-15T12:59:05;37.43;;;25.63;;
29548;SDS011;16487;53.094;8.800;2023-04-15T13:01:32;40.10;;;27.70;;
29548;SDS011;16487;53.094;8.800;2023-04-15T13:03:59;37.13;;;26.47;;
29548;SDS011;16487;53.094;8.800;2023-04-15T13:06:27;45.07;;;27.57;;
29548;SDS011;16487;53.094;8.800;2023-04-15T13:08:55;42.33;;;28.80;;
29548;SDS011;16487;53.094;8.800;2023-04-15T13:11:26;36.00;;;26.13;;
29548;SDS011;16487;53.094;8.800;2023-04-15T13:13:54;38.97;;;30.70;;
29548;SDS011;16487;53.094;8.800;2023-04-15T13:16:21;37.13;;;25.67;;
29548;SDS011;16487;53.094;8.800;2023-04-15T13:18:48;42.20;;;28.07;;
29548;SDS011;16487;53.094;8.800;2023-04-15T13:21:16;40.00;;;27.53;;
29548;SDS011;16487;53.094;8.800;2023-04-15T13:23:45;41.67;;;29.20;;
29548;SDS011;16487;53.094;8.800;2023-04-15T13:26:14;36.10;;;26.50;;
29548;SDS011;16487;53.094;8.800;2023-04-15T13:28:42;32.33;;;26.27;;
29548;SDS011;16487;53.094;8.800;2023-04-15T13:31:11;28.37;;;24.17;;
29548;SDS011;16487;53.094;8.800;2023-04-15T13:33:38;26.90;;;23.63;;
29548;SDS011;16487;53.094;8.800;2023-04-15T13:36:06;28.23;;;23.30;;
29548;SDS011;16487;53.094;8.800;2023-04-15T13:38:34;28.30;;;25.30;;
29548;SDS011;16487;53.094;8.800;2023-04-15T13:41:01;28.60;;;24.47;;
29548;SDS011;16487;53.094;8.800;2023-04-15T13:43:28;27.63;;;23.43;;
29548;SDS011;16487;53.094;8.800;2023-04-15T13:45:57;28.23;;;25.33;;
29548;SDS011;16487;53.094;8.800;2023-04-15T13:48:24;28.33;;;25.23;;
29548;SDS011;16487;53.094;8.800;2023-04-15T13:50:52;26.97;;;24.13;;
29548;SDS011;16487;53.094;8.800;2023-04-15T13:53:19;28.53;;;25.20;;
29548;SDS011;16487;53.094;8.800;2023-04-15T13:56:00;30.87;;;25.30;;
29548;SDS011;16487;53.094;8.800;2023-04-15T13:58:27;29.10;;;26.00;;
29548;SDS011;16487;53.094;8.800;2023-04-15T14:00:54;28.83;;;24.70;;
29548;SDS011;16487;53.094;8.800;2023-04-15T14:03:23;26.97;;;24.07;;
29548;SDS011;16487;53.094;8.800;2023-04-15T14:05:50;29.40;;;24.93;;
29548;SDS011;16487;53.094;8.800;2023-04-15T14:08:18;32.80;;;26.33;;
29548;SDS011;16487;53.094;8.800;2023-04-15T14:10:45;28.23;;;25.30;;
29548;SDS011;16487;53.094;8.800;2023-04-15T14:13:12;27.77;;;24.13;;
29548;SDS011;16487;53.094;8.800;2023-04-15T14:15:39;27.50;;;24.60;;
29548;SDS011;16487;53.094;8.800;2023-04-15T14:18:07;30.67;;;23.73;;
29548;SDS011;16487;53.094;8.800;2023-04-15T14:20:36;27.23;;;23.70;;
29548;SDS011;16487;53.094;8.800;2023-04-15T14:23:03;25.70;;;22.90;;
29548;SDS011;16487;53.094;8.800;2023-04-15T14:25:31;27.47;;;24.67;;
29548;SDS011;16487;53.094;8.800;2023-04-15T14:28:00;27.83;;;25.00;;
29548;SDS011;16487;53.094;8.800;2023-04-15T14:30:27;27.20;;;24.30;;